sensor_id;sensor_type;location;lat;lon;timestamp;pressure;altitude;pressure_sealevel;temperature;humidity
58769;BME280;44536;47.474;19.056;2023-02-26T00:02:31;99324.03;;;3.37;73.23
58769;BME280;44536;47.474;19.056;2023-02-26T00:05:33;99311.22;;;3.32;73.46
58769;BME280;44536;47.474;19.056;2023-02-26T00:08:35;99305.25;;;3.30;74.19
58769;BME280;44536;47.474;19.056;2023-02-26T00:11:38;99311.41;;;3.29;73.84
58769;BME280;44536;47.474;19.056;2023-02-26T00:14:41;99301.13;;;3.26;74.35
58769;BME280;44536;47.474;19.056;2023-02-26T00:18:05;99303.38;;;3.32;74.27
58769;BME280;44536;47.474;19.056;2023-02-26T00:21:15;99286.44;;;3.23;74.09
58769;BME280;44536;47.474;19.056;2023-02-26T00:24:17;99310.41;;;3.17;73.92
58769;BME280;44536;47.474;19.056;2023-02-26T00:27:20;99322.13;;;3.12;74.55
58769;BME280;44536;47.474;19.056;2023-02-26T00:30:22;99317.63;;;3.14;74.16
58769;BME280;44536;47.474;19.056;2023-02-26T00:33:25;99300.44;;;3.10;74.85
58769;BME280;44536;47.474;19.056;2023-02-26T00:36:37;99284.06;;;3.06;74.53
58769;BME280;44536;47.474;19.056;2023-02-26T00:39:53;99292.16;;;3.16;74.17
58769;BME280;44536;47.474;19.056;2023-02-26T00:42:57;99297.91;;;3.08;75.05
58769;BME280;44536;47.474;19.056;2023-02-26T00:52:49;99320.19;;;3.01;74.03
58769;BME280;44536;47.474;19.056;2023-02-26T00:55:49;99309.50;;;3.04;74.07
58769;BME280;44536;47.474;19.056;2023-02-26T00:58:51;99312.59;;;2.96;74.24
58769;BME280;44536;47.474;19.056;2023-02-26T01:01:53;99311.28;;;2.89;74.83
58769;BME280;44536;47.474;19.056;2023-02-26T01:04:56;99304.00;;;2.94;74.44
58769;BME280;44536;47.474;19.056;2023-02-26T01:11:13;99295.41;;;2.92;74.73
58769;BME280;44536;47.474;19.056;2023-02-26T01:14:17;99305.88;;;3.07;74.22
58769;BME280;44536;47.474;19.056;2023-02-26T01:17:23;99307.09;;;3.01;74.30
58769;BME280;44536;47.474;19.056;2023-02-26T01:20:30;99320.53;;;2.95;74.26
58769;BME280;44536;47.474;19.056;2023-02-26T01:23:41;99351.13;;;2.94;73.46
58769;BME280;44536;47.474;19.056;2023-02-26T01:26:46;99340.75;;;2.93;73.40
58769;BME280;44536;47.474;19.056;2023-02-26T01:29:51;99328.88;;;3.02;73.34
58769;BME280;44536;47.474;19.056;2023-02-26T01:33:13;99317.28;;;2.91;73.72
58769;BME280;44536;47.474;19.056;2023-02-26T01:36:21;99321.56;;;2.92;73.25
58769;BME280;44536;47.474;19.056;2023-02-26T01:39:39;99308.28;;;2.81;73.75
58769;BME280;44536;47.474;19.056;2023-02-26T01:42:50;99302.59;;;2.75;74.48
58769;BME280;44536;47.474;19.056;2023-02-26T01:46:04;99296.41;;;2.76;74.18
58769;BME280;44536;47.474;19.056;2023-02-26T01:49:12;99303.72;;;2.85;73.96
58769;BME280;44536;47.474;19.056;2023-02-26T01:55:55;99292.66;;;2.65;74.20
58769;BME280;44536;47.474;19.056;2023-02-26T01:58:58;99301.38;;;2.66;74.25
58769;BME280;44536;47.474;19.056;2023-02-26T02:02:03;99315.87;;;2.57;74.70
58769;BME280;44536;47.474;19.056;2023-02-26T02:05:47;99342.12;;;2.56;74.13
58769;BME280;44536;47.474;19.056;2023-02-26T02:08:52;99357.25;;;2.51;74.10
58769;BME280;44536;47.474;19.056;2023-02-26T02:15:44;99336.69;;;2.45;74.76
58769;BME280;44536;47.474;19.056;2023-02-26T02:32:50;99341.91;;;2.45;75.20
58769;BME280;44536;47.474;19.056;2023-02-26T02:36:14;99339.22;;;2.46;75.16
58769;BME280;44536;47.474;19.056;2023-02-26T02:39:24;99346.72;;;2.52;75.53
58769;BME280;44536;47.474;19.056;2023-02-26T02:42:37;99359.59;;;2.55;74.69
58769;BME280;44536;47.474;19.056;2023-02-26T02:45:55;99364.72;;;2.43;75.76
58769;BME280;44536;47.474;19.056;2023-02-26T02:49:13;99353.41;;;2.42;76.08
58769;BME280;44536;47.474;19.056;2023-02-26T02:52:29;99358.38;;;2.47;75.88
58769;BME280;44536;47.474;19.056;2023-02-26T02:55:42;99359.94;;;2.35;76.69
58769;BME280;44536;47.474;19.056;2023-02-26T02:58:51;99375.03;;;2.30;76.51
58769;BME280;44536;47.474;19.056;2023-02-26T03:05:07;99374.25;;;2.44;76.31
58769;BME280;44536;47.474;19.056;2023-02-26T03:08:12;99387.03;;;2.34;77.08
58769;BME280;44536;47.474;19.056;2023-02-26T03:11:20;99401.13;;;2.31;77.46
58769;BME280;44536;47.474;19.056;2023-02-26T03:14:23;99396.78;;;2.46;76.58
58769;BME280;44536;47.474;19.056;2023-02-26T03:17:55;99383.59;;;2.48;76.35
58769;BME280;44536;47.474;19.056;2023-02-26T03:21:10;99361.88;;;2.31;76.53
58769;BME280;44536;47.474;19.056;2023-02-26T03:24:31;99369.25;;;2.25;76.86
58769;BME280;44536;47.474;19.056;2023-02-26T03:27:46;99388.38;;;2.25;77.10
58769;BME280;44536;47.474;19.056;2023-02-26T03:31:14;99375.22;;;2.27;77.32
58769;BME280;44536;47.474;19.056;2023-02-26T03:34:31;99394.81;;;2.20;78.45
58769;BME280;44536;47.474;19.056;2023-02-26T03:37:49;99396.59;;;2.19;77.39
58769;BME280;44536;47.474;19.056;2023-02-26T03:41:05;99399.34;;;2.32;76.89
58769;BME280;44536;47.474;19.056;2023-02-26T03:44:19;99398.50;;;2.31;77.34
58769;BME280;44536;47.474;19.056;2023-02-26T03:47:26;99393.09;;;2.35;76.94
58769;BME280;44536;47.474;19.056;2023-02-26T03:50:34;99402.41;;;2.24;77.04
58769;BME280;44536;47.474;19.056;2023-02-26T03:53:53;99416.50;;;2.22;77.16
58769;BME280;44536;47.474;19.056;2023-02-26T03:56:58;99417.81;;;2.29;77.18
58769;BME280;44536;47.474;19.056;2023-02-26T04:00:05;99423.66;;;2.18;76.62
58769;BME280;44536;47.474;19.056;2023-02-26T04:03:32;99431.84;;;2.28;76.98
58769;BME280;44536;47.474;19.056;2023-02-26T04:06:37;99406.34;;;2.31;77.02
58769;BME280;44536;47.474;19.056;2023-02-26T04:09:41;99390.22;;;2.39;76.07
58769;BME280;44536;47.474;19.056;2023-02-26T04:12:43;99397.66;;;2.31;76.15
58769;BME280;44536;47.474;19.056;2023-02-26T04:15:46;99408.81;;;2.19;76.46
58769;BME280;44536;47.474;19.056;2023-02-26T04:18:48;99407.88;;;2.20;76.99
58769;BME280;44536;47.474;19.056;2023-02-26T04:21:50;99400.31;;;2.15;77.52
58769;BME280;44536;47.474;19.056;2023-02-26T04:24:53;99421.47;;;2.11;78.13
58769;BME280;44536;47.474;19.056;2023-02-26T04:27:56;99430.31;;;2.24;77.95
58769;BME280;44536;47.474;19.056;2023-02-26T04:30:58;99447.63;;;2.26;76.67
58769;BME280;44536;47.474;19.056;2023-02-26T04:34:01;99464.16;;;2.11;77.90
58769;BME280;44536;47.474;19.056;2023-02-26T04:37:04;99456.91;;;2.16;76.96
58769;BME280;44536;47.474;19.056;2023-02-26T04:40:07;99453.28;;;2.19;77.33
58769;BME280;44536;47.474;19.056;2023-02-26T04:43:10;99470.22;;;2.12;77.50
58769;BME280;44536;47.474;19.056;2023-02-26T04:46:13;99479.47;;;2.03;78.36
58769;BME280;44536;47.474;19.056;2023-02-26T04:49:16;99478.00;;;2.13;77.73
58769;BME280;44536;47.474;19.056;2023-02-26T04:52:18;99480.78;;;2.10;77.53
58769;BME280;44536;47.474;19.056;2023-02-26T04:55:22;99468.22;;;2.17;77.93
58769;BME280;44536;47.474;19.056;2023-02-26T04:58:24;99474.44;;;2.14;77.49
58769;BME280;44536;47.474;19.056;2023-02-26T05:01:26;99462.81;;;2.20;76.79
58769;BME280;44536;47.474;19.056;2023-02-26T05:04:30;99483.66;;;2.21;76.84
58769;BME280;44536;47.474;19.056;2023-02-26T05:07:33;99480.09;;;2.22;76.38
58769;BME280;44536;47.474;19.056;2023-02-26T05:10:35;99469.56;;;2.24;76.65
58769;BME280;44536;47.474;19.056;2023-02-26T05:13:38;99472.44;;;2.19;76.50
58769;BME280;44536;47.474;19.056;2023-02-26T05:16:41;99480.19;;;2.21;77.41
58769;BME280;44536;47.474;19.056;2023-02-26T05:19:43;99484.66;;;2.19;76.91
58769;BME280;44536;47.474;19.056;2023-02-26T05:22:45;99482.37;;;2.13;77.14
58769;BME280;44536;47.474;19.056;2023-02-26T05:25:48;99480.13;;;2.07;78.05
58769;BME280;44536;47.474;19.056;2023-02-26T05:28:51;99480.03;;;2.08;77.90
58769;BME280;44536;47.474;19.056;2023-02-26T05:31:53;99497.00;;;2.01;77.87
58769;BME280;44536;47.474;19.056;2023-02-26T05:34:56;99515.97;;;2.05;77.83
58769;BME280;44536;47.474;19.056;2023-02-26T05:37:58;99516.22;;;2.00;78.27
58769;BME280;44536;47.474;19.056;2023-02-26T05:41:01;99514.22;;;2.05;78.17
58769;BME280;44536;47.474;19.056;2023-02-26T05:44:04;99510.59;;;2.08;78.08
58769;BME280;44536;47.474;19.056;2023-02-26T05:47:06;99509.38;;;2.13;77.65
58769;BME280;44536;47.474;19.056;2023-02-26T05:50:09;99528.97;;;2.06;77.99
58769;BME280;44536;47.474;19.056;2023-02-26T05:53:12;99545.84;;;2.01;77.65
58769;BME280;44536;47.474;19.056;2023-02-26T05:56:14;99552.91;;;2.14;77.60
58769;BME280;44536;47.474;19.056;2023-02-26T05:59:19;99558.72;;;2.19;77.97
58769;BME280;44536;47.474;19.056;2023-02-26T06:02:21;99554.25;;;2.21;76.98
58769;BME280;44536;47.474;19.056;2023-02-26T06:05:24;99540.50;;;2.18;77.33
58769;BME280;44536;47.474;19.056;2023-02-26T06:08:26;99542.88;;;2.07;77.84
58769;BME280;44536;47.474;19.056;2023-02-26T06:11:29;99553.75;;;2.15;77.76
58769;BME280;44536;47.474;19.056;2023-02-26T06:14:35;99556.12;;;2.19;77.69
58769;BME280;44536;47.474;19.056;2023-02-26T06:17:38;99556.63;;;2.26;77.59
58769;BME280;44536;47.474;19.056;2023-02-26T06:20:41;99580.75;;;2.31;77.55
58769;BME280;44536;47.474;19.056;2023-02-26T06:23:44;99575.28;;;2.36;77.67
58769;BME280;44536;47.474;19.056;2023-02-26T06:26:46;99585.00;;;2.33;77.53
58769;BME280;44536;47.474;19.056;2023-02-26T06:29:49;99592.75;;;2.51;76.77
58769;BME280;44536;47.474;19.056;2023-02-26T06:32:51;99597.66;;;2.41;77.25
58769;BME280;44536;47.474;19.056;2023-02-26T06:35:54;99591.91;;;2.50;76.02
58769;BME280;44536;47.474;19.056;2023-02-26T06:38:58;99587.69;;;2.48;76.49
58769;BME280;44536;47.474;19.056;2023-02-26T06:42:00;99589.87;;;2.40;76.00
58769;BME280;44536;47.474;19.056;2023-02-26T06:45:03;99588.78;;;2.59;76.43
58769;BME280;44536;47.474;19.056;2023-02-26T06:48:06;99605.81;;;2.82;75.15
58769;BME280;44536;47.474;19.056;2023-02-26T06:51:09;99611.13;;;2.96;74.46
58769;BME280;44536;47.474;19.056;2023-02-26T06:54:11;99610.09;;;2.99;73.97
58769;BME280;44536;47.474;19.056;2023-02-26T06:57:13;99610.97;;;3.14;74.48
58769;BME280;44536;47.474;19.056;2023-02-26T07:00:16;99601.16;;;3.17;73.95
58769;BME280;44536;47.474;19.056;2023-02-26T07:03:19;99600.22;;;3.18;73.67
58769;BME280;44536;47.474;19.056;2023-02-26T07:06:22;99601.75;;;3.22;73.54
58769;BME280;44536;47.474;19.056;2023-02-26T07:09:29;99594.03;;;3.35;72.72
58769;BME280;44536;47.474;19.056;2023-02-26T07:12:31;99602.31;;;3.57;72.35
58769;BME280;44536;47.474;19.056;2023-02-26T07:15:34;99607.16;;;3.49;72.18
58769;BME280;44536;47.474;19.056;2023-02-26T07:18:36;99607.56;;;3.27;72.70
58769;BME280;44536;47.474;19.056;2023-02-26T07:21:39;99597.84;;;3.29;72.84
58769;BME280;44536;47.474;19.056;2023-02-26T07:24:42;99587.00;;;3.36;72.71
58769;BME280;44536;47.474;19.056;2023-02-26T07:27:44;99589.03;;;3.60;72.35
58769;BME280;44536;47.474;19.056;2023-02-26T07:30:47;99585.38;;;3.63;71.43
58769;BME280;44536;47.474;19.056;2023-02-26T07:33:49;99599.44;;;3.90;70.74
58769;BME280;44536;47.474;19.056;2023-02-26T07:36:51;99588.72;;;4.22;69.30
58769;BME280;44536;47.474;19.056;2023-02-26T07:39:54;99578.66;;;4.43;68.14
58769;BME280;44536;47.474;19.056;2023-02-26T07:42:57;99610.28;;;4.27;67.94
58769;BME280;44536;47.474;19.056;2023-02-26T07:45:59;99627.22;;;4.64;67.44
58769;BME280;44536;47.474;19.056;2023-02-26T07:49:01;99601.22;;;4.86;65.77
58769;BME280;44536;47.474;19.056;2023-02-26T07:52:04;99612.47;;;4.61;65.85
58769;BME280;44536;47.474;19.056;2023-02-26T07:55:09;99606.25;;;4.36;66.66
58769;BME280;44536;47.474;19.056;2023-02-26T07:58:11;99611.69;;;4.32;67.62
58769;BME280;44536;47.474;19.056;2023-02-26T08:01:14;99613.22;;;4.63;65.97
58769;BME280;44536;47.474;19.056;2023-02-26T08:04:19;99617.44;;;4.66;65.28
58769;BME280;44536;47.474;19.056;2023-02-26T08:07:21;99620.91;;;4.93;64.21
58769;BME280;44536;47.474;19.056;2023-02-26T08:10:24;99617.34;;;4.68;64.20
58769;BME280;44536;47.474;19.056;2023-02-26T08:13:26;99615.44;;;4.70;65.21
58769;BME280;44536;47.474;19.056;2023-02-26T08:16:29;99616.06;;;4.60;65.14
58769;BME280;44536;47.474;19.056;2023-02-26T08:19:31;99608.19;;;4.46;65.24
58769;BME280;44536;47.474;19.056;2023-02-26T08:22:33;99609.22;;;4.58;65.63
58769;BME280;44536;47.474;19.056;2023-02-26T08:25:36;99620.19;;;4.50;65.92
58769;BME280;44536;47.474;19.056;2023-02-26T08:28:39;99625.81;;;4.44;65.92
58769;BME280;44536;47.474;19.056;2023-02-26T08:31:41;99632.19;;;4.40;66.44
58769;BME280;44536;47.474;19.056;2023-02-26T08:34:45;99631.16;;;4.43;66.55
58769;BME280;44536;47.474;19.056;2023-02-26T08:37:47;99621.78;;;4.39;66.94
58769;BME280;44536;47.474;19.056;2023-02-26T08:40:50;99621.25;;;4.33;67.23
58769;BME280;44536;47.474;19.056;2023-02-26T08:43:53;99627.03;;;4.39;66.81
58769;BME280;44536;47.474;19.056;2023-02-26T08:46:55;99646.16;;;4.55;66.52
58769;BME280;44536;47.474;19.056;2023-02-26T08:49:58;99636.97;;;4.48;66.33
58769;BME280;44536;47.474;19.056;2023-02-26T08:53:01;99644.84;;;4.62;66.38
58769;BME280;44536;47.474;19.056;2023-02-26T08:56:03;99649.63;;;4.55;65.62
58769;BME280;44536;47.474;19.056;2023-02-26T08:59:06;99656.41;;;4.86;65.38
58769;BME280;44536;47.474;19.056;2023-02-26T09:02:11;99658.59;;;5.07;64.55
58769;BME280;44536;47.474;19.056;2023-02-26T09:05:14;99667.50;;;5.31;63.75
58769;BME280;44536;47.474;19.056;2023-02-26T09:08:17;99681.69;;;5.68;63.08
58769;BME280;44536;47.474;19.056;2023-02-26T09:11:21;99667.69;;;5.80;60.67
58769;BME280;44536;47.474;19.056;2023-02-26T09:14:24;99671.13;;;6.20;59.33
58769;BME280;44536;47.474;19.056;2023-02-26T09:17:26;99671.41;;;6.41;58.69
58769;BME280;44536;47.474;19.056;2023-02-26T09:20:29;99672.78;;;6.47;57.62
58769;BME280;44536;47.474;19.056;2023-02-26T09:23:31;99690.09;;;6.13;58.68
58769;BME280;44536;47.474;19.056;2023-02-26T09:26:33;99682.09;;;5.75;59.50
58769;BME280;44536;47.474;19.056;2023-02-26T09:29:36;99696.28;;;5.99;59.30
58769;BME280;44536;47.474;19.056;2023-02-26T09:32:38;99696.22;;;5.86;59.87
58769;BME280;44536;47.474;19.056;2023-02-26T09:35:41;99691.56;;;6.04;58.91
58769;BME280;44536;47.474;19.056;2023-02-26T09:38:43;99701.13;;;6.05;59.51
58769;BME280;44536;47.474;19.056;2023-02-26T09:41:50;99704.88;;;5.88;59.71
58769;BME280;44536;47.474;19.056;2023-02-26T09:44:54;99697.84;;;6.40;59.02
58769;BME280;44536;47.474;19.056;2023-02-26T09:48:04;99707.44;;;6.66;57.20
58769;BME280;44536;47.474;19.056;2023-02-26T09:51:11;99708.75;;;6.84;56.45
58769;BME280;44536;47.474;19.056;2023-02-26T09:54:22;99709.41;;;7.12;56.10
58769;BME280;44536;47.474;19.056;2023-02-26T09:57:31;99705.56;;;6.92;55.99
58769;BME280;44536;47.474;19.056;2023-02-26T10:00:38;99693.31;;;7.04;56.56
58769;BME280;44536;47.474;19.056;2023-02-26T10:07:38;99703.47;;;7.21;55.79
58769;BME280;44536;47.474;19.056;2023-02-26T10:10:53;99711.53;;;7.30;54.88
58769;BME280;44536;47.474;19.056;2023-02-26T10:14:04;99717.41;;;7.23;53.65
58769;BME280;44536;47.474;19.056;2023-02-26T10:17:39;99733.03;;;7.37;53.05
58769;BME280;44536;47.474;19.056;2023-02-26T10:24:28;99749.00;;;7.59;51.64
58769;BME280;44536;47.474;19.056;2023-02-26T10:27:50;99762.50;;;7.31;51.85
58769;BME280;44536;47.474;19.056;2023-02-26T10:30:58;99761.75;;;7.29;51.57
58769;BME280;44536;47.474;19.056;2023-02-26T10:34:33;99771.72;;;7.25;53.32
58769;BME280;44536;47.474;19.056;2023-02-26T10:41:05;99777.09;;;7.95;50.13
58769;BME280;44536;47.474;19.056;2023-02-26T10:44:35;99774.06;;;8.24;50.18
58769;BME280;44536;47.474;19.056;2023-02-26T10:47:48;99790.16;;;7.97;50.76
58769;BME280;44536;47.474;19.056;2023-02-26T10:50:57;99780.59;;;8.42;49.34
58769;BME280;44536;47.474;19.056;2023-02-26T10:54:14;99782.47;;;7.94;50.67
58769;BME280;44536;47.474;19.056;2023-02-26T10:57:24;99793.53;;;8.34;50.83
58769;BME280;44536;47.474;19.056;2023-02-26T11:00:27;99797.81;;;8.92;48.87
58769;BME280;44536;47.474;19.056;2023-02-26T11:03:33;99799.62;;;9.03;48.40
58769;BME280;44536;47.474;19.056;2023-02-26T11:06:42;99805.66;;;8.83;49.42
58769;BME280;44536;47.474;19.056;2023-02-26T11:09:46;99802.87;;;8.95;49.22
58769;BME280;44536;47.474;19.056;2023-02-26T11:12:48;99810.59;;;9.10;49.00
58769;BME280;44536;47.474;19.056;2023-02-26T11:15:56;99807.06;;;8.65;49.89
58769;BME280;44536;47.474;19.056;2023-02-26T11:19:00;99804.50;;;8.41;49.53
58769;BME280;44536;47.474;19.056;2023-02-26T11:22:03;99804.75;;;8.49;49.73
58769;BME280;44536;47.474;19.056;2023-02-26T11:25:07;99816.31;;;8.24;51.25
58769;BME280;44536;47.474;19.056;2023-02-26T11:28:21;99821.22;;;8.17;51.63
58769;BME280;44536;47.474;19.056;2023-02-26T11:31:26;99819.91;;;7.64;52.29
58769;BME280;44536;47.474;19.056;2023-02-26T11:34:30;99820.03;;;7.26;53.30
58769;BME280;44536;47.474;19.056;2023-02-26T11:37:35;99826.88;;;7.16;55.05
58769;BME280;44536;47.474;19.056;2023-02-26T11:40:40;99820.63;;;7.29;54.33
58769;BME280;44536;47.474;19.056;2023-02-26T11:43:47;99817.59;;;7.59;53.56
58769;BME280;44536;47.474;19.056;2023-02-26T11:46:52;99825.56;;;7.71;53.70
58769;BME280;44536;47.474;19.056;2023-02-26T11:50:01;99833.53;;;7.82;53.64
58769;BME280;44536;47.474;19.056;2023-02-26T11:53:15;99829.16;;;7.93;52.00
58769;BME280;44536;47.474;19.056;2023-02-26T11:56:26;99828.97;;;7.84;52.49
58769;BME280;44536;47.474;19.056;2023-02-26T11:59:32;99819.44;;;7.94;52.95
58769;BME280;44536;47.474;19.056;2023-02-26T12:02:38;99820.97;;;8.44;51.26
58769;BME280;44536;47.474;19.056;2023-02-26T12:05:41;99827.81;;;8.47;51.73
58769;BME280;44536;47.474;19.056;2023-02-26T12:08:44;99832.66;;;8.64;50.23
58769;BME280;44536;47.474;19.056;2023-02-26T12:12:08;99833.28;;;8.90;50.74
58769;BME280;44536;47.474;19.056;2023-02-26T12:18:37;99835.31;;;8.64;51.18
58769;BME280;44536;47.474;19.056;2023-02-26T12:25:28;99848.19;;;8.10;52.65
58769;BME280;44536;47.474;19.056;2023-02-26T12:29:00;99848.75;;;7.42;53.67
58769;BME280;44536;47.474;19.056;2023-02-26T12:36:19;99854.75;;;8.04;52.98
58769;BME280;44536;47.474;19.056;2023-02-26T12:46:34;99849.69;;;8.49;50.30
58769;BME280;44536;47.474;19.056;2023-02-26T12:49:55;99865.66;;;8.47;51.22
58769;BME280;44536;47.474;19.056;2023-02-26T12:53:33;99865.72;;;8.11;51.36
58769;BME280;44536;47.474;19.056;2023-02-26T13:07:10;99875.19;;;7.66;53.02
58769;BME280;44536;47.474;19.056;2023-02-26T13:10:31;99875.50;;;7.74;53.30
58769;BME280;44536;47.474;19.056;2023-02-26T13:14:14;99885.91;;;8.12;51.83
58769;BME280;44536;47.474;19.056;2023-02-26T13:17:25;99886.44;;;8.04;49.86
58769;BME280;44536;47.474;19.056;2023-02-26T13:20:30;99899.06;;;7.64;52.78
58769;BME280;44536;47.474;19.056;2023-02-26T13:23:40;99897.38;;;7.63;53.02
58769;BME280;44536;47.474;19.056;2023-02-26T13:26:45;99895.37;;;7.54;52.99
58769;BME280;44536;47.474;19.056;2023-02-26T13:33:18;99899.59;;;7.56;53.60
58769;BME280;44536;47.474;19.056;2023-02-26T13:36:23;99893.78;;;7.64;53.42
58769;BME280;44536;47.474;19.056;2023-02-26T13:39:53;99900.53;;;7.55;53.58
58769;BME280;44536;47.474;19.056;2023-02-26T13:52:54;99910.06;;;6.56;58.53
58769;BME280;44536;47.474;19.056;2023-02-26T13:56:14;99911.97;;;6.27;59.30
58769;BME280;44536;47.474;19.056;2023-02-26T14:02:50;99916.91;;;6.19;60.47
58769;BME280;44536;47.474;19.056;2023-02-26T14:05:55;99911.19;;;6.13;60.94
58769;BME280;44536;47.474;19.056;2023-02-26T14:15:40;99945.34;;;6.00;60.77
58769;BME280;44536;47.474;19.056;2023-02-26T14:31:20;99963.84;;;5.84;58.22
58769;BME280;44536;47.474;19.056;2023-02-26T14:34:25;99964.13;;;5.80;58.58
58769;BME280;44536;47.474;19.056;2023-02-26T14:37:29;99966.91;;;5.64;59.77
58769;BME280;44536;47.474;19.056;2023-02-26T14:40:40;99968.88;;;5.46;60.67
58769;BME280;44536;47.474;19.056;2023-02-26T14:43:49;99973.94;;;5.35;61.85
58769;BME280;44536;47.474;19.056;2023-02-26T14:46:55;99982.75;;;5.34;61.66
58769;BME280;44536;47.474;19.056;2023-02-26T14:49:58;99977.87;;;5.28;61.99
58769;BME280;44536;47.474;19.056;2023-02-26T15:02:56;99991.00;;;5.14;61.35
58769;BME280;44536;47.474;19.056;2023-02-26T15:06:26;99994.94;;;5.07;61.05
58769;BME280;44536;47.474;19.056;2023-02-26T15:16:37;100015.03;;;5.22;60.35
58769;BME280;44536;47.474;19.056;2023-02-26T15:26:41;100033.81;;;5.16;60.33
58769;BME280;44536;47.474;19.056;2023-02-26T15:29:46;100045.09;;;5.18;60.50
58769;BME280;44536;47.474;19.056;2023-02-26T15:32:59;100040.94;;;5.14;59.83
58769;BME280;44536;47.474;19.056;2023-02-26T15:36:13;100050.44;;;5.16;59.32
58769;BME280;44536;47.474;19.056;2023-02-26T15:39:18;100054.34;;;5.09;58.65
58769;BME280;44536;47.474;19.056;2023-02-26T15:42:28;100057.16;;;5.06;58.53
58769;BME280;44536;47.474;19.056;2023-02-26T15:45:36;100051.69;;;4.95;60.23
58769;BME280;44536;47.474;19.056;2023-02-26T15:48:40;100061.41;;;5.09;59.50
58769;BME280;44536;47.474;19.056;2023-02-26T15:51:43;100057.84;;;5.10;59.41
58769;BME280;44536;47.474;19.056;2023-02-26T15:54:58;100065.41;;;5.00;60.20
58769;BME280;44536;47.474;19.056;2023-02-26T15:58:02;100064.37;;;5.03;60.24
58769;BME280;44536;47.474;19.056;2023-02-26T16:01:14;100075.72;;;5.03;60.50
58769;BME280;44536;47.474;19.056;2023-02-26T16:04:20;100070.47;;;5.03;60.72
58769;BME280;44536;47.474;19.056;2023-02-26T16:07:23;100085.31;;;5.04;60.89
58769;BME280;44536;47.474;19.056;2023-02-26T16:10:31;100089.16;;;4.83;60.68
58769;BME280;44536;47.474;19.056;2023-02-26T16:13:35;100093.63;;;4.96;60.83
58769;BME280;44536;47.474;19.056;2023-02-26T16:16:51;100092.03;;;4.94;60.77
58769;BME280;44536;47.474;19.056;2023-02-26T16:19:56;100104.06;;;4.98;60.05
58769;BME280;44536;47.474;19.056;2023-02-26T16:23:06;100110.16;;;4.98;59.99
58769;BME280;44536;47.474;19.056;2023-02-26T16:26:20;100109.66;;;4.92;60.55
58769;BME280;44536;47.474;19.056;2023-02-26T16:29:27;100119.41;;;4.90;59.68
58769;BME280;44536;47.474;19.056;2023-02-26T16:32:32;100119.56;;;4.87;59.21
58769;BME280;44536;47.474;19.056;2023-02-26T16:35:40;100118.13;;;4.81;59.92
58769;BME280;44536;47.474;19.056;2023-02-26T16:38:49;100123.56;;;4.78;59.28
58769;BME280;44536;47.474;19.056;2023-02-26T16:42:08;100125.41;;;4.92;58.82
58769;BME280;44536;47.474;19.056;2023-02-26T16:45:23;100134.16;;;4.77;60.01
58769;BME280;44536;47.474;19.056;2023-02-26T16:48:29;100139.16;;;4.81;59.14
58769;BME280;44536;47.474;19.056;2023-02-26T16:51:34;100147.97;;;4.80;59.38
58769;BME280;44536;47.474;19.056;2023-02-26T16:54:40;100144.75;;;4.75;59.84
58769;BME280;44536;47.474;19.056;2023-02-26T16:57:45;100141.53;;;4.86;59.24
58769;BME280;44536;47.474;19.056;2023-02-26T17:00:53;100144.50;;;4.80;59.90
58769;BME280;44536;47.474;19.056;2023-02-26T17:04:01;100152.53;;;4.77;59.55
58769;BME280;44536;47.474;19.056;2023-02-26T17:07:35;100159.66;;;4.75;59.62
58769;BME280;44536;47.474;19.056;2023-02-26T17:14:04;100157.91;;;4.59;60.86
58769;BME280;44536;47.474;19.056;2023-02-26T17:17:09;100167.56;;;4.59;61.06
58769;BME280;44536;47.474;19.056;2023-02-26T17:20:12;100170.25;;;4.57;62.19
58769;BME280;44536;47.474;19.056;2023-02-26T17:23:16;100167.47;;;4.60;61.84
58769;BME280;44536;47.474;19.056;2023-02-26T17:26:20;100177.62;;;4.51;61.94
58769;BME280;44536;47.474;19.056;2023-02-26T17:29:42;100176.44;;;4.56;62.40
58769;BME280;44536;47.474;19.056;2023-02-26T17:32:45;100179.50;;;4.64;61.60
58769;BME280;44536;47.474;19.056;2023-02-26T17:35:48;100175.69;;;4.54;61.82
58769;BME280;44536;47.474;19.056;2023-02-26T17:38:51;100175.81;;;4.36;63.56
58769;BME280;44536;47.474;19.056;2023-02-26T17:41:53;100180.81;;;4.40;63.15
58769;BME280;44536;47.474;19.056;2023-02-26T17:44:55;100174.88;;;4.37;63.92
58769;BME280;44536;47.474;19.056;2023-02-26T17:47:58;100180.47;;;4.30;64.49
58769;BME280;44536;47.474;19.056;2023-02-26T17:51:01;100181.81;;;4.38;64.60
58769;BME280;44536;47.474;19.056;2023-02-26T17:54:03;100178.97;;;4.42;63.64
58769;BME280;44536;47.474;19.056;2023-02-26T17:57:06;100183.34;;;4.42;64.23
58769;BME280;44536;47.474;19.056;2023-02-26T18:00:14;100183.53;;;4.39;63.89
58769;BME280;44536;47.474;19.056;2023-02-26T18:03:17;100188.63;;;4.42;64.69
58769;BME280;44536;47.474;19.056;2023-02-26T18:06:20;100184.78;;;4.31;65.23
58769;BME280;44536;47.474;19.056;2023-02-26T18:09:23;100185.50;;;4.18;65.86
58769;BME280;44536;47.474;19.056;2023-02-26T18:12:25;100181.38;;;4.29;64.86
58769;BME280;44536;47.474;19.056;2023-02-26T18:15:27;100188.66;;;4.24;65.45
58769;BME280;44536;47.474;19.056;2023-02-26T18:18:30;100188.66;;;4.24;65.47
58769;BME280;44536;47.474;19.056;2023-02-26T18:21:33;100193.88;;;4.09;65.83
58769;BME280;44536;47.474;19.056;2023-02-26T18:24:36;100195.59;;;4.25;66.30
58769;BME280;44536;47.474;19.056;2023-02-26T18:27:38;100193.66;;;4.29;66.24
58769;BME280;44536;47.474;19.056;2023-02-26T18:30:43;100197.13;;;4.14;66.66
58769;BME280;44536;47.474;19.056;2023-02-26T18:33:46;100189.25;;;4.14;67.22
58769;BME280;44536;47.474;19.056;2023-02-26T18:36:49;100193.75;;;4.27;66.07
58769;BME280;44536;47.474;19.056;2023-02-26T18:39:51;100208.72;;;4.25;66.43
58769;BME280;44536;47.474;19.056;2023-02-26T18:42:54;100208.00;;;4.06;67.18
58769;BME280;44536;47.474;19.056;2023-02-26T18:45:56;100212.59;;;4.18;66.93